createdAt,value
2023-01-08T00:01:08.257Z,92018.19
2023-01-08T00:03:35.276Z,92016.34
2023-01-08T00:06:03.254Z,92017.81
2023-01-08T00:08:30.598Z,92022.00
2023-01-08T00:10:57.391Z,92016.75
2023-01-08T00:13:24.137Z,92018.19
2023-01-08T00:15:50.831Z,92017.97
2023-01-08T00:18:17.515Z,92025.56
2023-01-08T00:20:44.762Z,92022.78
2023-01-08T00:23:15.053Z,92019.75
2023-01-08T00:25:41.773Z,92020.94
2023-01-08T00:28:08.416Z,92021.72
2023-01-08T00:30:35.835Z,92015.09
2023-01-08T00:33:02.635Z,92020.91
2023-01-08T00:35:29.212Z,92019.69
2023-01-08T00:37:55.859Z,92015.81
2023-01-08T00:40:22.573Z,92023.72
2023-01-08T00:42:49.316Z,92019.09
2023-01-08T00:45:16.015Z,92026.63
2023-01-08T00:47:42.698Z,92022.81
2023-01-08T00:50:09.831Z,92023.66
2023-01-08T00:52:36.593Z,92025.22
2023-01-08T00:55:03.588Z,92024.00
2023-01-08T00:57:34.852Z,92023.38
2023-01-08T01:00:01.608Z,92017.47
2023-01-08T01:02:28.473Z,92017.78
2023-01-08T01:04:55.221Z,92015.03
2023-01-08T01:07:21.842Z,92014.81
2023-01-08T01:09:48.540Z,92016.34
2023-01-08T01:12:15.175Z,92022.19
2023-01-08T01:14:41.898Z,92013.31
2023-01-08T01:17:08.516Z,92018.44
2023-01-08T01:19:35.817Z,92012.84
2023-01-08T01:22:02.533Z,92009.69
2023-01-08T01:24:29.521Z,92008.56
2023-01-08T01:26:57.553Z,92004.63
2023-01-08T01:29:24.548Z,92000.38
2023-01-08T01:31:51.303Z,91994.97
2023-01-08T01:34:18.093Z,91999.88
2023-01-08T01:36:44.850Z,92006.41
2023-01-08T01:39:11.449Z,91996.75
2023-01-08T01:41:42.699Z,91993.78
2023-01-08T01:44:35.358Z,91988.97
2023-01-08T01:47:20.235Z,92000.69
2023-01-08T01:49:53.308Z,91990.00
2023-01-08T01:52:22.389Z,91992.94
2023-01-08T01:54:50.244Z,91988.94
2023-01-08T01:57:16.813Z,91986.34
2023-01-08T01:59:43.491Z,91992.66
2023-01-08T02:02:10.254Z,91987.06
2023-01-08T02:04:36.986Z,91989.88
2023-01-08T02:07:30.635Z,91989.69
2023-01-08T02:10:29.553Z,91985.34
2023-01-08T02:13:04.591Z,91982.22
2023-01-08T02:15:52.785Z,91981.72
2023-01-08T02:18:33.403Z,91980.56
2023-01-08T02:21:16.299Z,91978.75
2023-01-08T02:24:12.142Z,91979.97
2023-01-08T02:26:38.819Z,91970.63
2023-01-08T02:29:31.871Z,91974.53
2023-01-08T02:31:58.590Z,91963.75
2023-01-08T02:34:25.186Z,91969.66
2023-01-08T02:36:53.182Z,91962.81
2023-01-08T02:39:25.627Z,91967.75
2023-01-08T02:41:59.277Z,91966.59
2023-01-08T02:44:28.859Z,91966.38
2023-01-08T02:46:55.471Z,91960.94
2023-01-08T02:49:22.084Z,91957.56
2023-01-08T02:51:53.243Z,91961.13
2023-01-08T02:54:25.508Z,91950.25
2023-01-08T02:57:05.801Z,91956.50
2023-01-08T02:59:32.651Z,91953.75
2023-01-08T03:01:59.677Z,91951.44
2023-01-08T03:04:26.565Z,91948.34
2023-01-08T03:06:53.237Z,91955.19
2023-01-08T03:09:20.245Z,91943.50
2023-01-08T03:12:05.139Z,91952.63
2023-01-08T03:14:48.015Z,91941.34
2023-01-08T03:17:27.109Z,91942.94
2023-01-08T03:19:54.936Z,91953.66
2023-01-08T03:22:21.685Z,91945.78
2023-01-08T03:24:49.644Z,91946.66
2023-01-08T03:27:18.212Z,91953.34
2023-01-08T03:29:45.924Z,91945.59
2023-01-08T03:32:14.220Z,91946.09
2023-01-08T03:34:41.473Z,91940.41
2023-01-08T03:37:08.513Z,91950.13
2023-01-08T03:39:44.434Z,91948.34
2023-01-08T03:42:12.810Z,91946.94
2023-01-08T03:44:39.465Z,91949.97
2023-01-08T03:47:06.062Z,91939.72
2023-01-08T03:49:32.711Z,91948.63
2023-01-08T03:51:59.391Z,91945.19
2023-01-08T03:54:31.533Z,91956.81
2023-01-08T03:56:58.308Z,91943.41
2023-01-08T03:59:24.911Z,91945.88
2023-01-08T04:01:51.634Z,91949.09
2023-01-08T04:04:18.480Z,91947.16
2023-01-08T04:06:45.164Z,91948.78
2023-01-08T04:09:11.743Z,91948.53
2023-01-08T04:11:38.384Z,91945.97
2023-01-08T04:14:05.084Z,91953.00
2023-01-08T04:16:31.877Z,91955.03
2023-01-08T04:18:58.558Z,91952.53
2023-01-08T04:21:25.281Z,91957.63
2023-01-08T04:23:51.925Z,91953.81
2023-01-08T04:26:18.629Z,91950.94
2023-01-08T04:28:45.482Z,91943.94
2023-01-08T04:31:12.134Z,91956.63
2023-01-08T04:33:38.902Z,91950.22
2023-01-08T04:36:05.833Z,91949.81
2023-01-08T04:38:32.514Z,91958.78
2023-01-08T04:41:02.600Z,91958.69
2023-01-08T04:43:29.303Z,91952.16
2023-01-08T04:45:59.884Z,91953.69
2023-01-08T04:48:27.346Z,91947.38
2023-01-08T04:50:54.058Z,91944.22
2023-01-08T04:53:20.682Z,91951.91
2023-01-08T04:55:47.377Z,91952.91
2023-01-08T04:58:14.081Z,91946.03
2023-01-08T05:00:40.726Z,91947.25
2023-01-08T05:03:07.358Z,91944.72
2023-01-08T05:05:34.503Z,91949.88
2023-01-08T05:08:01.120Z,91941.97
2023-01-08T05:10:27.806Z,91944.91
2023-01-08T05:13:01.063Z,91941.97
2023-01-08T05:15:27.865Z,91941.19
2023-01-08T05:18:01.387Z,91940.38
2023-01-08T05:20:28.124Z,91938.56
2023-01-08T05:22:54.888Z,91942.31
2023-01-08T05:25:21.460Z,91952.13
2023-01-08T05:27:48.204Z,91949.50
2023-01-08T05:30:14.971Z,91947.28
2023-01-08T05:32:41.623Z,91946.06
2023-01-08T05:35:08.625Z,91944.69
2023-01-08T05:37:35.612Z,91944.69
2023-01-08T05:40:02.277Z,91951.72
2023-01-08T05:42:29.046Z,91949.78
2023-01-08T05:44:55.731Z,91954.50
2023-01-08T05:47:22.389Z,91954.13
2023-01-08T05:49:49.029Z,91943.88
2023-01-08T05:52:15.778Z,91956.13
2023-01-08T05:54:42.455Z,91954.16
2023-01-08T05:57:09.050Z,91952.00
2023-01-08T05:59:35.780Z,91959.31
2023-01-08T06:02:02.371Z,91950.66
2023-01-08T06:04:29.055Z,91958.69
2023-01-08T06:06:55.804Z,91961.66
2023-01-08T06:09:22.428Z,91965.81
2023-01-08T06:11:49.224Z,91958.31
2023-01-08T06:14:16.645Z,91959.69
2023-01-08T06:16:43.726Z,91969.94
2023-01-08T06:19:11.244Z,91960.50
2023-01-08T06:21:38.320Z,91959.94
2023-01-08T06:24:05.633Z,91963.47
2023-01-08T06:26:32.290Z,91961.84
2023-01-08T06:28:58.939Z,91960.69
2023-01-08T06:31:25.650Z,91963.25
2023-01-08T06:33:52.424Z,91965.94
2023-01-08T06:36:19.120Z,91964.53
2023-01-08T06:38:45.767Z,91976.16
2023-01-08T06:41:12.485Z,91972.63
2023-01-08T06:43:39.235Z,91976.09
2023-01-08T06:46:06.492Z,91980.03
2023-01-08T06:48:33.265Z,91968.84
2023-01-08T06:51:00.745Z,91976.22
2023-01-08T06:53:27.434Z,91971.84
2023-01-08T06:55:57.091Z,91973.53
2023-01-08T06:58:24.322Z,91986.47
2023-01-08T07:00:51.001Z,91975.03
2023-01-08T07:03:17.757Z,91983.72
2023-01-08T07:05:44.542Z,91982.28
2023-01-08T07:08:12.669Z,91981.00
2023-01-08T07:10:39.233Z,91980.09
2023-01-08T07:13:07.885Z,91984.94
2023-01-08T07:15:36.181Z,91985.59
2023-01-08T07:18:07.016Z,91984.03
2023-01-08T07:20:34.415Z,91980.13
2023-01-08T07:23:10.564Z,91980.50
2023-01-08T07:25:37.195Z,91985.59
2023-01-08T07:28:03.856Z,91985.41
2023-01-08T07:30:30.906Z,91983.38
2023-01-08T07:32:59.452Z,91983.69
2023-01-08T07:35:26.152Z,91979.75
2023-01-08T07:37:52.744Z,91977.59
2023-01-08T07:40:19.475Z,91986.94
2023-01-08T07:42:46.125Z,91986.50
2023-01-08T07:45:12.777Z,91988.31
2023-01-08T07:47:39.459Z,91990.34
2023-01-08T07:50:06.636Z,91987.94
2023-01-08T07:52:33.300Z,91987.59
2023-01-08T07:54:59.926Z,91985.00
2023-01-08T07:57:26.520Z,91985.28
2023-01-08T07:59:53.172Z,91988.41
2023-01-08T08:02:20.113Z,91990.66
2023-01-08T08:04:46.750Z,91989.56
2023-01-08T08:07:13.357Z,91988.13
2023-01-08T08:09:40.098Z,91981.59
2023-01-08T08:12:07.053Z,91986.88
2023-01-08T08:14:33.768Z,91986.91
2023-01-08T08:17:01.192Z,91988.50
2023-01-08T08:19:27.841Z,91991.94
2023-01-08T08:21:54.768Z,91993.34
2023-01-08T08:24:21.492Z,91989.72
2023-01-08T08:26:48.290Z,91990.22
2023-01-08T08:29:14.985Z,91998.09
2023-01-08T08:31:42.794Z,91991.47
2023-01-08T08:34:09.496Z,91989.69
2023-01-08T08:36:36.192Z,91994.22
2023-01-08T08:39:03.261Z,91982.94
2023-01-08T08:41:29.837Z,91984.63
2023-01-08T08:43:56.489Z,91986.16
2023-01-08T08:46:24.336Z,91981.31
2023-01-08T08:48:51.105Z,91978.75
2023-01-08T08:51:17.823Z,91980.25
2023-01-08T08:53:44.485Z,91980.19
2023-01-08T08:56:11.196Z,91974.28
2023-01-08T08:58:37.981Z,91975.72
2023-01-08T09:01:04.873Z,91974.94
2023-01-08T09:03:31.672Z,91982.56
2023-01-08T09:05:59.836Z,91976.28
2023-01-08T09:08:26.709Z,91979.84
2023-01-08T09:10:53.416Z,91969.88
2023-01-08T09:13:20.054Z,91977.63
2023-01-08T09:15:46.763Z,91971.00
2023-01-08T09:18:15.834Z,91972.13
2023-01-08T09:20:42.721Z,91975.97
2023-01-08T09:23:09.483Z,91968.19
2023-01-08T09:25:36.247Z,91964.03
2023-01-08T09:28:04.677Z,91965.16
2023-01-08T09:30:31.471Z,91965.97
2023-01-08T09:33:02.926Z,91963.94
2023-01-08T09:35:30.131Z,91951.94
2023-01-08T09:37:56.831Z,91945.09
2023-01-08T09:40:26.027Z,91942.03
2023-01-08T09:42:57.860Z,91937.31
2023-01-08T09:45:29.272Z,91939.28
2023-01-08T09:47:57.077Z,91934.97
2023-01-08T09:50:23.851Z,91928.69
2023-01-08T09:52:50.696Z,91920.78
2023-01-08T09:55:17.395Z,91923.50
2023-01-08T09:57:44.277Z,91918.63
2023-01-08T10:00:15.604Z,91907.78
2023-01-08T10:02:42.458Z,91905.50
2023-01-08T10:05:17.205Z,91905.28
2023-01-08T10:07:44.396Z,91902.88
2023-01-08T10:10:28.482Z,91911.94
2023-01-08T10:12:55.224Z,91905.16
2023-01-08T10:15:21.936Z,91893.28
2023-01-08T10:17:56.196Z,91894.38
2023-01-08T10:20:24.096Z,91888.34
2023-01-08T10:22:54.147Z,91889.03
2023-01-08T10:25:24.358Z,91888.97
2023-01-08T10:28:00.692Z,91886.47
2023-01-08T10:30:33.036Z,91884.28
2023-01-08T10:33:06.934Z,91878.91
2023-01-08T10:35:43.046Z,91874.63
2023-01-08T10:38:33.692Z,91866.66
2023-01-08T10:41:04.908Z,91862.53
2023-01-08T10:43:34.251Z,91861.09
2023-01-08T10:46:01.645Z,91857.97
2023-01-08T10:48:35.869Z,91844.94
2023-01-08T10:51:20.967Z,91845.38
2023-01-08T10:53:47.736Z,91837.69
2023-01-08T10:56:23.981Z,91840.19
2023-01-08T10:58:51.105Z,91829.34
2023-01-08T11:01:23.419Z,91829.69
2023-01-08T11:03:54.300Z,91829.31
2023-01-08T11:06:23.345Z,91828.63
2023-01-08T11:08:54.881Z,91816.97
2023-01-08T11:11:21.710Z,91817.81
2023-01-08T11:13:59.061Z,91818.50
2023-01-08T11:16:36.883Z,91809.25
2023-01-08T11:19:03.663Z,91812.22
2023-01-08T11:21:31.688Z,91808.06
2023-01-08T11:24:07.396Z,91809.88
2023-01-08T11:26:34.043Z,91801.25
2023-01-08T11:29:06.759Z,91805.28
2023-01-08T11:31:44.733Z,91802.34
2023-01-08T11:34:26.171Z,91795.78
2023-01-08T11:37:23.140Z,91800.28
2023-01-08T11:39:50.016Z,91785.16
2023-01-08T11:42:38.296Z,91790.59
2023-01-08T11:45:14.384Z,91785.38
2023-01-08T11:47:55.147Z,91789.28
2023-01-08T11:50:27.813Z,91783.16
2023-01-08T11:53:15.223Z,91787.56
2023-01-08T11:55:43.494Z,91787.44
2023-01-08T11:58:46.539Z,91785.03
2023-01-08T12:01:31.591Z,91779.91
2023-01-08T12:04:16.605Z,91773.31
2023-01-08T12:07:25.233Z,91776.34
2023-01-08T12:10:15.433Z,91769.00
2023-01-08T12:12:50.919Z,91769.78
2023-01-08T12:15:55.132Z,91766.50
2023-01-08T12:18:36.531Z,91765.66
2023-01-08T12:21:21.959Z,91772.63
2023-01-08T12:24:22.919Z,91771.50
2023-01-08T12:27:55.425Z,91770.63
2023-01-08T12:30:34.820Z,91758.97
2023-01-08T12:33:23.972Z,91759.09
2023-01-08T12:35:52.439Z,91762.16
2023-01-08T12:38:25.987Z,91760.03
2023-01-08T12:40:55.398Z,91757.56
2023-01-08T12:43:25.323Z,91759.97
2023-01-08T12:45:54.034Z,91763.75
2023-01-08T12:48:22.577Z,91758.31
2023-01-08T12:50:49.673Z,91750.03
2023-01-08T12:53:37.378Z,91752.16
2023-01-08T12:56:16.223Z,91748.59
2023-01-08T12:58:45.843Z,91751.75
2023-01-08T13:01:42.333Z,91758.81
2023-01-08T13:04:09.813Z,91763.63
2023-01-08T13:06:36.437Z,91755.25
2023-01-08T13:09:03.067Z,91755.75
2023-01-08T13:11:32.006Z,91752.41
2023-01-08T13:14:00.621Z,91753.47
2023-01-08T13:16:27.346Z,91748.94
2023-01-08T13:19:01.456Z,91745.06
2023-01-08T13:21:39.467Z,91753.88
2023-01-08T13:24:29.491Z,91755.09
2023-01-08T13:26:57.026Z,91750.09
2023-01-08T13:29:24.865Z,91756.84
2023-01-08T13:31:51.758Z,91758.31
2023-01-08T13:34:35.321Z,91750.72
2023-01-08T13:37:01.962Z,91762.38
2023-01-08T13:39:36.315Z,91759.34
2023-01-08T13:42:13.803Z,91755.09
2023-01-08T13:44:42.491Z,91758.75
2023-01-08T13:47:37.161Z,91758.16
2023-01-08T13:50:16.344Z,91757.78
2023-01-08T13:52:47.337Z,91757.56
2023-01-08T13:55:40.484Z,91752.44
2023-01-08T13:58:12.389Z,91760.81
2023-01-08T14:00:45.484Z,91759.56
2023-01-08T14:03:35.565Z,91760.88
2023-01-08T14:06:06.881Z,91760.88
2023-01-08T14:08:33.682Z,91765.34
2023-01-08T14:11:00.379Z,91767.63
2023-01-08T14:13:30.248Z,91761.69
2023-01-08T14:16:00.756Z,91765.31
2023-01-08T14:18:28.418Z,91766.69
2023-01-08T14:20:55.107Z,91762.09
2023-01-08T14:23:24.859Z,91766.19
2023-01-08T14:25:51.477Z,91768.31
2023-01-08T14:28:19.780Z,91757.94
2023-01-08T14:30:55.446Z,91760.25
2023-01-08T14:33:29.105Z,91767.00
2023-01-08T14:35:55.808Z,91755.75
2023-01-08T14:38:22.498Z,91760.34
2023-01-08T14:41:05.744Z,91759.50
2023-01-08T14:43:42.699Z,91765.28
2023-01-08T14:46:19.304Z,91766.81
2023-01-08T14:48:46.001Z,91763.63
2023-01-08T14:51:17.593Z,91765.72
2023-01-08T14:53:54.821Z,91769.78
2023-01-08T14:56:24.220Z,91764.91
2023-01-08T14:58:50.894Z,91770.19
2023-01-08T15:01:19.911Z,91766.50
2023-01-08T15:03:50.641Z,91767.41
2023-01-08T15:06:32.830Z,91769.88
2023-01-08T15:09:00.449Z,91768.81
2023-01-08T15:11:30.960Z,91758.81
2023-01-08T15:13:58.001Z,91764.13
2023-01-08T15:16:28.008Z,91765.75
2023-01-08T15:19:14.147Z,91765.69
2023-01-08T15:21:46.318Z,91766.44
2023-01-08T15:24:35.664Z,91770.34
2023-01-08T15:27:09.942Z,91773.16
2023-01-08T15:29:46.367Z,91770.31
2023-01-08T15:32:16.038Z,91775.16
2023-01-08T15:34:43.464Z,91764.91
2023-01-08T15:37:10.177Z,91763.72
2023-01-08T15:39:36.972Z,91772.88
2023-01-08T15:42:33.959Z,91768.16
2023-01-08T15:45:00.666Z,91772.81
2023-01-08T15:47:27.212Z,91773.09
2023-01-08T15:49:54.596Z,91779.63
2023-01-08T15:52:23.306Z,91773.94
2023-01-08T15:54:50.110Z,91772.88
2023-01-08T15:57:16.777Z,91786.41
2023-01-08T15:59:43.494Z,91780.19
2023-01-08T16:02:11.955Z,91783.81
2023-01-08T16:04:38.737Z,91778.59
2023-01-08T16:07:05.396Z,91782.00
2023-01-08T16:09:32.084Z,91776.03
2023-01-08T16:11:58.785Z,91785.84
2023-01-08T16:14:25.603Z,91784.06
2023-01-08T16:16:52.317Z,91779.94
2023-01-08T16:19:18.975Z,91778.34
2023-01-08T16:21:48.173Z,91791.53
2023-01-08T16:24:15.149Z,91793.16
2023-01-08T16:26:41.853Z,91784.06
2023-01-08T16:29:08.435Z,91783.56
2023-01-08T16:31:37.585Z,91789.00
2023-01-08T16:34:05.268Z,91777.75
2023-01-08T16:36:32.068Z,91790.63
2023-01-08T16:38:58.867Z,91782.81
2023-01-08T16:41:25.644Z,91781.75
2023-01-08T16:43:52.271Z,91786.28
2023-01-08T16:46:18.979Z,91790.44
2023-01-08T16:48:46.791Z,91787.38
2023-01-08T16:51:13.448Z,91794.06
2023-01-08T16:53:40.071Z,91785.31
2023-01-08T16:56:07.157Z,91801.22
2023-01-08T16:58:35.411Z,91795.03
2023-01-08T17:01:03.636Z,91793.03
2023-01-08T17:03:30.283Z,91796.47
2023-01-08T17:06:00.315Z,91797.38
2023-01-08T17:08:27.929Z,91790.91
2023-01-08T17:10:54.619Z,91792.72
2023-01-08T17:13:21.247Z,91796.81
2023-01-08T17:15:47.877Z,91798.13
2023-01-08T17:18:14.582Z,91792.81
2023-01-08T17:20:41.319Z,91799.38
2023-01-08T17:23:07.884Z,91794.38
2023-01-08T17:25:34.496Z,91792.50
2023-01-08T17:28:01.220Z,91799.19
2023-01-08T17:30:27.911Z,91803.34
2023-01-08T17:32:54.736Z,91810.13
2023-01-08T17:35:21.355Z,91808.28
2023-01-08T17:37:48.074Z,91803.28
2023-01-08T17:40:14.861Z,91805.31
2023-01-08T17:42:41.574Z,91806.53
2023-01-08T17:45:08.644Z,91803.88
2023-01-08T17:47:37.253Z,91807.50
2023-01-08T17:50:05.808Z,91805.38
2023-01-08T17:52:32.555Z,91805.63
2023-01-08T17:54:59.259Z,91809.38
2023-01-08T17:57:26.654Z,91816.59
2023-01-08T17:59:53.401Z,91811.41
2023-01-08T18:02:20.176Z,91809.47
2023-01-08T18:04:47.100Z,91807.94
2023-01-08T18:07:13.844Z,91810.19
2023-01-08T18:09:40.515Z,91803.00
2023-01-08T18:12:07.699Z,91806.72
2023-01-08T18:14:38.963Z,91814.75
2023-01-08T18:17:05.919Z,91814.78
2023-01-08T18:19:32.576Z,91813.09
2023-01-08T18:21:59.333Z,91815.97
2023-01-08T18:24:26.095Z,91812.66
2023-01-08T18:26:52.786Z,91814.94
2023-01-08T18:29:19.377Z,91822.16
2023-01-08T18:31:46.540Z,91831.56
2023-01-08T18:34:15.163Z,91829.94
2023-01-08T18:36:44.308Z,91822.03
2023-01-08T18:39:13.722Z,91821.56
2023-01-08T18:41:58.689Z,91829.38
2023-01-08T18:44:25.432Z,91822.06
2023-01-08T18:46:52.111Z,91825.53
2023-01-08T18:49:20.240Z,91840.69
2023-01-08T18:51:46.930Z,91836.84
2023-01-08T18:54:13.645Z,91838.00
2023-01-08T18:56:40.451Z,91837.84
2023-01-08T18:59:07.424Z,91846.38
2023-01-08T19:01:35.036Z,91847.22
2023-01-08T19:04:02.181Z,91847.88
2023-01-08T19:06:28.882Z,91843.28
2023-01-08T19:08:57.870Z,91851.13
2023-01-08T19:11:24.685Z,91849.53
2023-01-08T19:13:55.401Z,91851.22
2023-01-08T19:16:22.587Z,91848.31
2023-01-08T19:18:50.234Z,91852.25
2023-01-08T19:21:19.080Z,91851.84
2023-01-08T19:23:46.828Z,91854.06
2023-01-08T19:26:14.681Z,91855.50
2023-01-08T19:28:42.049Z,91847.25
2023-01-08T19:31:12.145Z,91852.50
2023-01-08T19:33:39.034Z,91856.78
2023-01-08T19:36:10.938Z,91852.59
2023-01-08T19:38:37.720Z,91857.31
2023-01-08T19:41:04.627Z,91852.25
2023-01-08T19:43:43.143Z,91855.47
2023-01-08T19:46:12.033Z,91854.53
2023-01-08T19:48:40.253Z,91858.22
2023-01-08T19:51:08.384Z,91862.03
2023-01-08T19:53:35.133Z,91860.41
2023-01-08T19:56:06.171Z,91870.69
2023-01-08T19:58:32.997Z,91878.63
2023-01-08T20:00:59.699Z,91873.56
2023-01-08T20:03:27.218Z,91871.78
2023-01-08T20:05:53.897Z,91876.47
2023-01-08T20:08:20.622Z,91877.13
2023-01-08T20:10:47.262Z,91870.41
2023-01-08T20:13:13.953Z,91873.97
2023-01-08T20:15:40.646Z,91874.84
2023-01-08T20:18:07.397Z,91867.25
2023-01-08T20:20:34.103Z,91870.97
2023-01-08T20:23:00.765Z,91871.53
2023-01-08T20:25:27.454Z,91870.09
2023-01-08T20:27:54.191Z,91871.16
2023-01-08T20:30:20.825Z,91872.59
2023-01-08T20:32:47.564Z,91877.72
2023-01-08T20:35:14.241Z,91877.94
2023-01-08T20:37:40.864Z,91868.78
2023-01-08T20:40:08.336Z,91876.19
2023-01-08T20:42:34.978Z,91880.75
2023-01-08T20:45:01.976Z,91873.75
2023-01-08T20:47:28.593Z,91877.25
2023-01-08T20:49:55.292Z,91875.63
2023-01-08T20:52:21.909Z,91875.13
2023-01-08T20:54:48.662Z,91867.34
2023-01-08T20:57:15.325Z,91870.03
2023-01-08T20:59:42.322Z,91867.97
2023-01-08T21:02:10.752Z,91863.28
2023-01-08T21:04:41.436Z,91865.44
2023-01-08T21:07:08.109Z,91866.41
2023-01-08T21:09:34.814Z,91874.03
2023-01-08T21:12:01.487Z,91877.25
2023-01-08T21:14:28.289Z,91876.47
2023-01-08T21:16:54.975Z,91874.38
2023-01-08T21:19:21.700Z,91867.09
2023-01-08T21:21:48.403Z,91873.81
2023-01-08T21:24:15.123Z,91878.56
2023-01-08T21:26:41.868Z,91879.97
2023-01-08T21:29:09.121Z,91876.88
2023-01-08T21:31:36.426Z,91873.47
2023-01-08T21:34:03.213Z,91876.63
2023-01-08T21:36:31.410Z,91873.13
2023-01-08T21:38:58.601Z,91875.91
2023-01-08T21:41:44.751Z,91874.63
2023-01-08T21:44:32.101Z,91874.69
2023-01-08T21:46:59.850Z,91880.13
2023-01-08T21:49:26.728Z,91873.81
2023-01-08T21:52:12.381Z,91871.53
2023-01-08T21:54:39.543Z,91879.63
2023-01-08T21:57:06.903Z,91881.88
2023-01-08T21:59:34.162Z,91881.41
2023-01-08T22:02:01.195Z,91882.69
2023-01-08T22:04:27.952Z,91886.38
2023-01-08T22:06:54.655Z,91884.66
2023-01-08T22:09:21.384Z,91888.38
2023-01-08T22:11:48.024Z,91885.03
2023-01-08T22:14:14.651Z,91891.19
2023-01-08T22:16:41.379Z,91874.91
2023-01-08T22:19:08.012Z,91875.19
2023-01-08T22:21:34.706Z,91884.53
2023-01-08T22:24:01.654Z,91880.16
2023-01-08T22:26:28.369Z,91884.81
2023-01-08T22:28:55.416Z,91875.69
2023-01-08T22:31:22.080Z,91868.56
2023-01-08T22:33:48.787Z,91866.84
2023-01-08T22:36:15.555Z,91867.28
2023-01-08T22:38:42.328Z,91865.84
2023-01-08T22:41:14.752Z,91860.56
2023-01-08T22:43:41.504Z,91871.00
2023-01-08T22:46:09.596Z,91861.13
2023-01-08T22:48:37.431Z,91855.78
2023-01-08T22:51:04.288Z,91853.09
2023-01-08T22:53:31.021Z,91848.13
2023-01-08T22:55:57.828Z,91851.06
2023-01-08T22:58:24.547Z,91851.72
2023-01-08T23:00:51.233Z,91843.09
2023-01-08T23:03:17.854Z,91851.31
2023-01-08T23:05:44.435Z,91847.56
2023-01-08T23:08:11.107Z,91847.25
2023-01-08T23:10:38.007Z,91841.13
2023-01-08T23:13:04.693Z,91836.91
2023-01-08T23:15:31.371Z,91834.59
2023-01-08T23:17:58.067Z,91840.31
2023-01-08T23:20:25.074Z,91828.09
2023-01-08T23:22:51.897Z,91829.69
2023-01-08T23:25:18.486Z,91826.38
2023-01-08T23:27:45.642Z,91822.66
2023-01-08T23:30:12.524Z,91825.19
2023-01-08T23:32:39.885Z,91830.03
2023-01-08T23:35:06.754Z,91820.34
2023-01-08T23:37:34.119Z,91820.78
2023-01-08T23:40:00.783Z,91828.13
2023-01-08T23:42:29.311Z,91816.31
2023-01-08T23:44:56.031Z,91810.78
2023-01-08T23:47:22.648Z,91818.81
2023-01-08T23:49:49.354Z,91815.88
2023-01-08T23:52:16.046Z,91814.75
2023-01-08T23:54:42.763Z,91820.16
2023-01-08T23:57:09.344Z,91815.97
2023-01-08T23:59:36.069Z,91824.13
